sensor_id;sensor_type;location;lat;lon;timestamp;P1;durP1;ratioP1;P2;durP2;ratioP2
47289;SDS011;33197;52.524;13.444;2023-07-09T00:01:20;5.25;;;3.10;;
47289;SDS011;33197;52.524;13.444;2023-07-09T00:03:47;5.35;;;3.22;;
47289;SDS011;33197;52.524;13.444;2023-07-09T00:06:18;7.05;;;2.95;;
47289;SDS011;33197;52.524;13.444;2023-07-09T00:08:48;5.25;;;2.65;;
47289;SDS011;33197;52.524;13.444;2023-07-09T00:11:16;6.20;;;3.45;;
47289;SDS011;33197;52.524;13.444;2023-07-09T00:13:44;3.83;;;2.50;;
47289;SDS011;33197;52.524;13.444;2023-07-09T00:16:19;4.68;;;2.40;;
47289;SDS011;33197;52.524;13.444;2023-07-09T00:18:50;8.68;;;3.22;;
47289;SDS011;33197;52.524;13.444;2023-07-09T00:21:18;6.60;;;2.85;;
47289;SDS011;33197;52.524;13.444;2023-07-09T00:23:47;5.85;;;2.40;;
47289;SDS011;33197;52.524;13.444;2023-07-09T00:26:16;4.07;;;2.70;;
47289;SDS011;33197;52.524;13.444;2023-07-09T00:28:45;9.85;;;3.00;;
47289;SDS011;33197;52.524;13.444;2023-07-09T00:31:14;7.30;;;2.90;;
47289;SDS011;33197;52.524;13.444;2023-07-09T00:33:43;4.22;;;3.00;;
47289;SDS011;33197;52.524;13.444;2023-07-09T00:36:18;7.50;;;3.13;;
47289;SDS011;33197;52.524;13.444;2023-07-09T00:38:53;4.80;;;3.15;;
47289;SDS011;33197;52.524;13.444;2023-07-09T00:41:22;4.40;;;2.47;;
47289;SDS011;33197;52.524;13.444;2023-07-09T00:43:50;4.00;;;2.80;;
47289;SDS011;33197;52.524;13.444;2023-07-09T00:48:56;6.32;;;2.78;;
47289;SDS011;33197;52.524;13.444;2023-07-09T00:51:26;4.10;;;2.90;;
47289;SDS011;33197;52.524;13.444;2023-07-09T00:53:55;10.65;;;3.22;;
47289;SDS011;33197;52.524;13.444;2023-07-09T00:56:27;7.07;;;3.15;;
47289;SDS011;33197;52.524;13.444;2023-07-09T00:59:01;3.63;;;2.50;;
47289;SDS011;33197;52.524;13.444;2023-07-09T01:01:33;9.68;;;3.25;;
47289;SDS011;33197;52.524;13.444;2023-07-09T01:04:02;4.78;;;3.35;;
47289;SDS011;33197;52.524;13.444;2023-07-09T01:06:34;4.97;;;2.80;;
47289;SDS011;33197;52.524;13.444;2023-07-09T01:09:03;4.78;;;2.90;;
47289;SDS011;33197;52.524;13.444;2023-07-09T01:11:31;6.07;;;3.08;;
47289;SDS011;33197;52.524;13.444;2023-07-09T01:14:03;4.72;;;3.00;;
47289;SDS011;33197;52.524;13.444;2023-07-09T01:16:37;6.78;;;3.33;;
47289;SDS011;33197;52.524;13.444;2023-07-09T01:19:06;5.78;;;3.13;;
47289;SDS011;33197;52.524;13.444;2023-07-09T01:21:33;4.88;;;2.95;;
47289;SDS011;33197;52.524;13.444;2023-07-09T01:24:11;4.30;;;3.42;;
47289;SDS011;33197;52.524;13.444;2023-07-09T01:26:41;4.78;;;2.90;;
47289;SDS011;33197;52.524;13.444;2023-07-09T01:29:10;4.45;;;2.78;;
47289;SDS011;33197;52.524;13.444;2023-07-09T01:31:39;5.82;;;2.97;;
47289;SDS011;33197;52.524;13.444;2023-07-09T01:34:06;6.00;;;2.60;;
47289;SDS011;33197;52.524;13.444;2023-07-09T01:36:33;6.95;;;3.10;;
47289;SDS011;33197;52.524;13.444;2023-07-09T01:39:02;6.68;;;2.95;;
47289;SDS011;33197;52.524;13.444;2023-07-09T01:41:29;5.28;;;3.20;;
47289;SDS011;33197;52.524;13.444;2023-07-09T01:43:57;14.13;;;3.20;;
47289;SDS011;33197;52.524;13.444;2023-07-09T01:46:24;5.90;;;3.25;;
47289;SDS011;33197;52.524;13.444;2023-07-09T01:48:52;7.32;;;3.05;;
47289;SDS011;33197;52.524;13.444;2023-07-09T01:51:19;4.95;;;3.00;;
47289;SDS011;33197;52.524;13.444;2023-07-09T01:53:47;4.28;;;2.70;;
47289;SDS011;33197;52.524;13.444;2023-07-09T01:56:16;4.63;;;3.15;;
47289;SDS011;33197;52.524;13.444;2023-07-09T01:58:44;5.22;;;2.80;;
47289;SDS011;33197;52.524;13.444;2023-07-09T02:01:11;8.38;;;3.67;;
47289;SDS011;33197;52.524;13.444;2023-07-09T02:03:38;7.85;;;4.30;;
47289;SDS011;33197;52.524;13.444;2023-07-09T02:06:06;5.38;;;2.80;;
47289;SDS011;33197;52.524;13.444;2023-07-09T02:08:36;6.15;;;2.70;;
47289;SDS011;33197;52.524;13.444;2023-07-09T02:11:04;4.18;;;2.50;;
47289;SDS011;33197;52.524;13.444;2023-07-09T02:13:31;5.18;;;3.22;;
47289;SDS011;33197;52.524;13.444;2023-07-09T02:15:59;5.70;;;3.05;;
47289;SDS011;33197;52.524;13.444;2023-07-09T02:18:28;5.30;;;3.13;;
47289;SDS011;33197;52.524;13.444;2023-07-09T02:20:55;7.90;;;2.92;;
47289;SDS011;33197;52.524;13.444;2023-07-09T02:23:26;4.18;;;2.53;;
47289;SDS011;33197;52.524;13.444;2023-07-09T02:25:54;8.48;;;3.28;;
47289;SDS011;33197;52.524;13.444;2023-07-09T02:28:22;5.95;;;3.42;;
47289;SDS011;33197;52.524;13.444;2023-07-09T02:30:49;4.65;;;2.80;;
47289;SDS011;33197;52.524;13.444;2023-07-09T02:33:17;4.70;;;3.35;;
47289;SDS011;33197;52.524;13.444;2023-07-09T02:35:47;7.30;;;3.25;;
47289;SDS011;33197;52.524;13.444;2023-07-09T02:38:14;6.18;;;3.55;;
47289;SDS011;33197;52.524;13.444;2023-07-09T02:40:42;6.53;;;2.97;;
47289;SDS011;33197;52.524;13.444;2023-07-09T02:43:09;9.00;;;7.35;;
47289;SDS011;33197;52.524;13.444;2023-07-09T02:45:36;9.43;;;4.45;;
47289;SDS011;33197;52.524;13.444;2023-07-09T02:48:03;7.40;;;3.67;;
47289;SDS011;33197;52.524;13.444;2023-07-09T02:50:31;5.13;;;3.53;;
47289;SDS011;33197;52.524;13.444;2023-07-09T02:52:59;6.47;;;3.40;;
47289;SDS011;33197;52.524;13.444;2023-07-09T02:55:26;5.32;;;2.88;;
47289;SDS011;33197;52.524;13.444;2023-07-09T02:57:53;3.85;;;2.70;;
47289;SDS011;33197;52.524;13.444;2023-07-09T03:00:21;4.43;;;3.28;;
47289;SDS011;33197;52.524;13.444;2023-07-09T03:02:48;6.15;;;2.90;;
47289;SDS011;33197;52.524;13.444;2023-07-09T03:05:16;4.03;;;3.00;;
47289;SDS011;33197;52.524;13.444;2023-07-09T03:07:43;4.30;;;3.13;;
47289;SDS011;33197;52.524;13.444;2023-07-09T03:10:11;7.50;;;2.95;;
47289;SDS011;33197;52.524;13.444;2023-07-09T03:12:38;5.22;;;3.45;;
47289;SDS011;33197;52.524;13.444;2023-07-09T03:15:05;5.72;;;3.08;;
47289;SDS011;33197;52.524;13.444;2023-07-09T03:17:33;5.20;;;2.88;;
47289;SDS011;33197;52.524;13.444;2023-07-09T03:20:01;4.43;;;2.90;;
47289;SDS011;33197;52.524;13.444;2023-07-09T03:22:32;8.70;;;3.22;;
47289;SDS011;33197;52.524;13.444;2023-07-09T03:25:00;4.38;;;3.47;;
47289;SDS011;33197;52.524;13.444;2023-07-09T03:27:27;5.70;;;3.20;;
47289;SDS011;33197;52.524;13.444;2023-07-09T03:29:55;9.15;;;3.50;;
47289;SDS011;33197;52.524;13.444;2023-07-09T03:32:22;7.32;;;2.97;;
47289;SDS011;33197;52.524;13.444;2023-07-09T03:34:49;6.90;;;2.72;;
47289;SDS011;33197;52.524;13.444;2023-07-09T03:37:16;6.82;;;2.95;;
47289;SDS011;33197;52.524;13.444;2023-07-09T03:39:47;4.93;;;3.00;;
47289;SDS011;33197;52.524;13.444;2023-07-09T03:42:14;5.05;;;3.05;;
47289;SDS011;33197;52.524;13.444;2023-07-09T03:44:42;6.78;;;3.17;;
47289;SDS011;33197;52.524;13.444;2023-07-09T03:47:09;7.60;;;4.03;;
47289;SDS011;33197;52.524;13.444;2023-07-09T03:49:37;7.03;;;3.33;;
47289;SDS011;33197;52.524;13.444;2023-07-09T03:52:05;7.03;;;3.90;;
47289;SDS011;33197;52.524;13.444;2023-07-09T03:54:32;4.80;;;3.30;;
47289;SDS011;33197;52.524;13.444;2023-07-09T03:57:00;7.53;;;2.83;;
47289;SDS011;33197;52.524;13.444;2023-07-09T03:59:27;8.48;;;3.83;;
47289;SDS011;33197;52.524;13.444;2023-07-09T04:01:54;6.25;;;3.40;;
47289;SDS011;33197;52.524;13.444;2023-07-09T04:04:22;8.10;;;3.85;;
47289;SDS011;33197;52.524;13.444;2023-07-09T04:06:49;5.72;;;3.47;;
47289;SDS011;33197;52.524;13.444;2023-07-09T04:09:17;5.18;;;3.00;;
47289;SDS011;33197;52.524;13.444;2023-07-09T04:11:44;8.35;;;3.33;;
47289;SDS011;33197;52.524;13.444;2023-07-09T04:14:12;6.95;;;2.90;;
47289;SDS011;33197;52.524;13.444;2023-07-09T04:16:39;5.45;;;3.63;;
47289;SDS011;33197;52.524;13.444;2023-07-09T04:19:07;6.07;;;3.10;;
47289;SDS011;33197;52.524;13.444;2023-07-09T04:21:34;6.13;;;3.10;;
47289;SDS011;33197;52.524;13.444;2023-07-09T04:24:01;5.43;;;3.70;;
47289;SDS011;33197;52.524;13.444;2023-07-09T04:26:29;7.10;;;3.72;;
47289;SDS011;33197;52.524;13.444;2023-07-09T04:28:56;8.77;;;4.07;;
47289;SDS011;33197;52.524;13.444;2023-07-09T04:31:24;4.65;;;3.10;;
47289;SDS011;33197;52.524;13.444;2023-07-09T04:33:51;5.40;;;3.40;;
47289;SDS011;33197;52.524;13.444;2023-07-09T04:36:19;5.90;;;3.22;;
47289;SDS011;33197;52.524;13.444;2023-07-09T04:38:46;5.18;;;3.88;;
47289;SDS011;33197;52.524;13.444;2023-07-09T04:41:14;5.45;;;3.65;;
47289;SDS011;33197;52.524;13.444;2023-07-09T04:43:41;7.88;;;3.65;;
47289;SDS011;33197;52.524;13.444;2023-07-09T04:46:09;7.20;;;3.97;;
47289;SDS011;33197;52.524;13.444;2023-07-09T04:48:36;6.65;;;3.13;;
47289;SDS011;33197;52.524;13.444;2023-07-09T04:51:05;6.28;;;3.63;;
47289;SDS011;33197;52.524;13.444;2023-07-09T04:53:33;9.88;;;4.03;;
47289;SDS011;33197;52.524;13.444;2023-07-09T04:56:00;6.28;;;3.35;;
47289;SDS011;33197;52.524;13.444;2023-07-09T04:58:31;4.43;;;3.33;;
47289;SDS011;33197;52.524;13.444;2023-07-09T05:00:59;5.63;;;3.60;;
47289;SDS011;33197;52.524;13.444;2023-07-09T05:03:26;5.57;;;3.42;;
47289;SDS011;33197;52.524;13.444;2023-07-09T05:05:54;4.80;;;3.22;;
47289;SDS011;33197;52.524;13.444;2023-07-09T05:08:21;7.57;;;3.50;;
47289;SDS011;33197;52.524;13.444;2023-07-09T05:10:50;5.63;;;3.25;;
47289;SDS011;33197;52.524;13.444;2023-07-09T05:13:19;4.43;;;3.60;;
47289;SDS011;33197;52.524;13.444;2023-07-09T05:15:47;6.70;;;3.70;;
47289;SDS011;33197;52.524;13.444;2023-07-09T05:18:14;5.85;;;3.33;;
47289;SDS011;33197;52.524;13.444;2023-07-09T05:20:42;5.53;;;3.38;;
47289;SDS011;33197;52.524;13.444;2023-07-09T05:23:10;6.70;;;4.20;;
47289;SDS011;33197;52.524;13.444;2023-07-09T05:25:38;6.13;;;3.15;;
47289;SDS011;33197;52.524;13.444;2023-07-09T05:28:05;4.40;;;3.20;;
47289;SDS011;33197;52.524;13.444;2023-07-09T05:30:32;5.30;;;3.15;;
47289;SDS011;33197;52.524;13.444;2023-07-09T05:33:03;4.78;;;2.83;;
47289;SDS011;33197;52.524;13.444;2023-07-09T05:35:30;4.85;;;2.80;;
47289;SDS011;33197;52.524;13.444;2023-07-09T05:37:59;5.70;;;3.42;;
47289;SDS011;33197;52.524;13.444;2023-07-09T05:40:26;4.35;;;3.17;;
47289;SDS011;33197;52.524;13.444;2023-07-09T05:42:54;4.97;;;3.30;;
47289;SDS011;33197;52.524;13.444;2023-07-09T05:45:21;4.88;;;3.42;;
47289;SDS011;33197;52.524;13.444;2023-07-09T05:47:48;5.30;;;3.00;;
47289;SDS011;33197;52.524;13.444;2023-07-09T05:50:16;5.63;;;2.90;;
47289;SDS011;33197;52.524;13.444;2023-07-09T05:53:05;2.97;;;2.42;;
47289;SDS011;33197;52.524;13.444;2023-07-09T05:55:33;5.25;;;2.67;;
47289;SDS011;33197;52.524;13.444;2023-07-09T05:58:00;4.75;;;2.70;;
47289;SDS011;33197;52.524;13.444;2023-07-09T06:00:30;6.82;;;2.88;;
47289;SDS011;33197;52.524;13.444;2023-07-09T06:02:57;3.33;;;2.72;;
47289;SDS011;33197;52.524;13.444;2023-07-09T06:05:26;3.80;;;2.88;;
47289;SDS011;33197;52.524;13.444;2023-07-09T06:07:53;4.50;;;3.05;;
47289;SDS011;33197;52.524;13.444;2023-07-09T06:10:20;5.20;;;3.42;;
47289;SDS011;33197;52.524;13.444;2023-07-09T06:12:49;11.25;;;3.42;;
47289;SDS011;33197;52.524;13.444;2023-07-09T06:15:17;6.50;;;2.95;;
47289;SDS011;33197;52.524;13.444;2023-07-09T06:17:45;5.80;;;3.47;;
47289;SDS011;33197;52.524;13.444;2023-07-09T06:20:13;4.57;;;2.90;;
47289;SDS011;33197;52.524;13.444;2023-07-09T06:22:40;5.70;;;2.72;;
47289;SDS011;33197;52.524;13.444;2023-07-09T06:25:08;5.05;;;3.00;;
47289;SDS011;33197;52.524;13.444;2023-07-09T06:27:35;3.22;;;2.75;;
47289;SDS011;33197;52.524;13.444;2023-07-09T06:30:02;5.13;;;3.75;;
47289;SDS011;33197;52.524;13.444;2023-07-09T06:32:31;4.32;;;2.92;;
47289;SDS011;33197;52.524;13.444;2023-07-09T06:34:58;4.57;;;3.30;;
47289;SDS011;33197;52.524;13.444;2023-07-09T06:37:26;6.20;;;2.58;;
47289;SDS011;33197;52.524;13.444;2023-07-09T06:39:53;5.78;;;3.45;;
47289;SDS011;33197;52.524;13.444;2023-07-09T06:42:20;6.82;;;3.45;;
47289;SDS011;33197;52.524;13.444;2023-07-09T06:44:47;5.70;;;2.92;;
47289;SDS011;33197;52.524;13.444;2023-07-09T06:47:15;8.13;;;3.25;;
47289;SDS011;33197;52.524;13.444;2023-07-09T06:49:42;5.25;;;2.97;;
47289;SDS011;33197;52.524;13.444;2023-07-09T06:52:10;4.35;;;3.25;;
47289;SDS011;33197;52.524;13.444;2023-07-09T06:54:37;4.20;;;3.03;;
47289;SDS011;33197;52.524;13.444;2023-07-09T06:57:05;7.00;;;3.03;;
47289;SDS011;33197;52.524;13.444;2023-07-09T06:59:32;4.65;;;3.20;;
47289;SDS011;33197;52.524;13.444;2023-07-09T07:01:59;4.75;;;3.60;;
47289;SDS011;33197;52.524;13.444;2023-07-09T07:04:27;3.83;;;2.88;;
47289;SDS011;33197;52.524;13.444;2023-07-09T07:06:54;9.77;;;3.42;;
47289;SDS011;33197;52.524;13.444;2023-07-09T07:09:23;4.47;;;3.05;;
47289;SDS011;33197;52.524;13.444;2023-07-09T07:11:50;4.43;;;2.90;;
47289;SDS011;33197;52.524;13.444;2023-07-09T07:14:18;3.83;;;2.72;;
47289;SDS011;33197;52.524;13.444;2023-07-09T07:16:45;6.18;;;3.40;;
47289;SDS011;33197;52.524;13.444;2023-07-09T07:19:13;4.45;;;3.00;;
47289;SDS011;33197;52.524;13.444;2023-07-09T07:21:40;5.15;;;3.80;;
47289;SDS011;33197;52.524;13.444;2023-07-09T07:24:08;6.90;;;2.97;;
47289;SDS011;33197;52.524;13.444;2023-07-09T07:26:35;4.30;;;2.92;;
47289;SDS011;33197;52.524;13.444;2023-07-09T07:29:02;5.28;;;3.38;;
47289;SDS011;33197;52.524;13.444;2023-07-09T07:31:30;5.57;;;3.55;;
47289;SDS011;33197;52.524;13.444;2023-07-09T07:33:58;6.47;;;3.50;;
47289;SDS011;33197;52.524;13.444;2023-07-09T07:36:25;6.07;;;3.20;;
47289;SDS011;33197;52.524;13.444;2023-07-09T07:38:57;5.95;;;3.28;;
47289;SDS011;33197;52.524;13.444;2023-07-09T07:41:25;4.20;;;3.33;;
47289;SDS011;33197;52.524;13.444;2023-07-09T07:43:52;4.95;;;3.15;;
47289;SDS011;33197;52.524;13.444;2023-07-09T07:46:19;5.78;;;3.25;;
47289;SDS011;33197;52.524;13.444;2023-07-09T07:48:47;3.67;;;3.15;;
47289;SDS011;33197;52.524;13.444;2023-07-09T07:51:14;5.63;;;3.25;;
47289;SDS011;33197;52.524;13.444;2023-07-09T07:53:42;4.07;;;3.35;;
47289;SDS011;33197;52.524;13.444;2023-07-09T07:56:09;6.60;;;3.40;;
47289;SDS011;33197;52.524;13.444;2023-07-09T07:58:37;5.90;;;3.20;;
47289;SDS011;33197;52.524;13.444;2023-07-09T08:01:04;4.88;;;3.05;;
47289;SDS011;33197;52.524;13.444;2023-07-09T08:03:32;7.93;;;3.30;;
47289;SDS011;33197;52.524;13.444;2023-07-09T08:05:59;4.35;;;3.13;;
47289;SDS011;33197;52.524;13.444;2023-07-09T08:08:29;6.13;;;4.28;;
47289;SDS011;33197;52.524;13.444;2023-07-09T08:11:00;7.20;;;3.47;;
47289;SDS011;33197;52.524;13.444;2023-07-09T08:13:32;3.88;;;3.15;;
47289;SDS011;33197;52.524;13.444;2023-07-09T08:16:06;10.65;;;4.07;;
47289;SDS011;33197;52.524;13.444;2023-07-09T08:18:34;6.18;;;3.45;;
47289;SDS011;33197;52.524;13.444;2023-07-09T08:21:02;5.63;;;3.42;;
47289;SDS011;33197;52.524;13.444;2023-07-09T08:23:30;10.27;;;3.80;;
47289;SDS011;33197;52.524;13.444;2023-07-09T08:26:00;4.45;;;3.25;;
47289;SDS011;33197;52.524;13.444;2023-07-09T08:28:30;6.32;;;3.50;;
47289;SDS011;33197;52.524;13.444;2023-07-09T08:30:59;6.38;;;3.60;;
47289;SDS011;33197;52.524;13.444;2023-07-09T08:33:26;5.28;;;3.50;;
47289;SDS011;33197;52.524;13.444;2023-07-09T08:35:54;4.22;;;3.42;;
47289;SDS011;33197;52.524;13.444;2023-07-09T08:38:21;4.78;;;3.30;;
47289;SDS011;33197;52.524;13.444;2023-07-09T08:40:50;4.80;;;3.17;;
47289;SDS011;33197;52.524;13.444;2023-07-09T08:46:06;4.30;;;3.03;;
47289;SDS011;33197;52.524;13.444;2023-07-09T08:48:38;4.40;;;3.10;;
47289;SDS011;33197;52.524;13.444;2023-07-09T08:51:42;4.20;;;3.55;;
47289;SDS011;33197;52.524;13.444;2023-07-09T08:54:09;4.78;;;2.85;;
47289;SDS011;33197;52.524;13.444;2023-07-09T08:56:41;5.13;;;3.30;;
47289;SDS011;33197;52.524;13.444;2023-07-09T08:59:09;6.75;;;3.58;;
47289;SDS011;33197;52.524;13.444;2023-07-09T09:01:46;5.10;;;3.83;;
47289;SDS011;33197;52.524;13.444;2023-07-09T09:04:25;6.32;;;3.40;;
47289;SDS011;33197;52.524;13.444;2023-07-09T09:07:06;7.18;;;3.65;;
47289;SDS011;33197;52.524;13.444;2023-07-09T09:09:56;8.98;;;4.47;;
47289;SDS011;33197;52.524;13.444;2023-07-09T09:12:26;6.13;;;3.92;;
47289;SDS011;33197;52.524;13.444;2023-07-09T09:14:57;9.45;;;5.03;;
47289;SDS011;33197;52.524;13.444;2023-07-09T09:17:25;8.32;;;4.40;;
47289;SDS011;33197;52.524;13.444;2023-07-09T09:19:56;8.48;;;3.75;;
47289;SDS011;33197;52.524;13.444;2023-07-09T09:22:33;6.88;;;4.65;;
47289;SDS011;33197;52.524;13.444;2023-07-09T09:27:45;6.97;;;4.32;;
47289;SDS011;33197;52.524;13.444;2023-07-09T09:30:16;4.68;;;3.40;;
47289;SDS011;33197;52.524;13.444;2023-07-09T09:33:06;5.07;;;3.78;;
47289;SDS011;33197;52.524;13.444;2023-07-09T09:35:40;6.95;;;3.65;;
47289;SDS011;33197;52.524;13.444;2023-07-09T09:38:11;4.45;;;3.42;;
47289;SDS011;33197;52.524;13.444;2023-07-09T09:40:40;5.72;;;3.28;;
47289;SDS011;33197;52.524;13.444;2023-07-09T09:43:16;4.90;;;3.47;;
47289;SDS011;33197;52.524;13.444;2023-07-09T09:45:47;4.60;;;3.10;;
47289;SDS011;33197;52.524;13.444;2023-07-09T09:48:18;14.60;;;3.75;;
47289;SDS011;33197;52.524;13.444;2023-07-09T09:50:59;4.28;;;3.60;;
47289;SDS011;33197;52.524;13.444;2023-07-09T09:53:37;4.07;;;3.10;;
47289;SDS011;33197;52.524;13.444;2023-07-09T09:56:06;5.97;;;3.50;;
47289;SDS011;33197;52.524;13.444;2023-07-09T09:58:51;3.38;;;3.08;;
47289;SDS011;33197;52.524;13.444;2023-07-09T10:01:21;3.78;;;3.28;;
47289;SDS011;33197;52.524;13.444;2023-07-09T10:03:55;5.90;;;3.40;;
47289;SDS011;33197;52.524;13.444;2023-07-09T10:06:33;7.03;;;3.78;;
47289;SDS011;33197;52.524;13.444;2023-07-09T10:09:26;7.35;;;4.25;;
47289;SDS011;33197;52.524;13.444;2023-07-09T10:12:00;5.15;;;3.53;;
47289;SDS011;33197;52.524;13.444;2023-07-09T10:14:42;10.98;;;4.47;;
47289;SDS011;33197;52.524;13.444;2023-07-09T10:17:22;9.77;;;4.32;;
47289;SDS011;33197;52.524;13.444;2023-07-09T10:39:19;6.97;;;3.72;;
47289;SDS011;33197;52.524;13.444;2023-07-09T10:41:59;6.82;;;4.20;;
47289;SDS011;33197;52.524;13.444;2023-07-09T10:44:32;4.88;;;3.47;;
47289;SDS011;33197;52.524;13.444;2023-07-09T10:47:04;4.35;;;3.38;;
47289;SDS011;33197;52.524;13.444;2023-07-09T10:49:36;5.70;;;3.45;;
47289;SDS011;33197;52.524;13.444;2023-07-09T10:57:30;4.38;;;3.60;;
47289;SDS011;33197;52.524;13.444;2023-07-09T11:00:07;6.47;;;3.53;;
47289;SDS011;33197;52.524;13.444;2023-07-09T11:02:38;10.65;;;3.92;;
47289;SDS011;33197;52.524;13.444;2023-07-09T11:05:06;4.50;;;3.58;;
47289;SDS011;33197;52.524;13.444;2023-07-09T11:07:42;5.18;;;3.50;;
47289;SDS011;33197;52.524;13.444;2023-07-09T11:10:23;4.95;;;3.72;;
47289;SDS011;33197;52.524;13.444;2023-07-09T11:15:43;3.72;;;3.30;;
47289;SDS011;33197;52.524;13.444;2023-07-09T11:18:25;5.03;;;4.00;;
47289;SDS011;33197;52.524;13.444;2023-07-09T11:26:13;7.28;;;3.75;;
47289;SDS011;33197;52.524;13.444;2023-07-09T11:28:46;5.53;;;3.33;;
47289;SDS011;33197;52.524;13.444;2023-07-09T11:31:21;8.40;;;4.00;;
47289;SDS011;33197;52.524;13.444;2023-07-09T11:36:35;6.97;;;4.03;;
47289;SDS011;33197;52.524;13.444;2023-07-09T11:39:28;4.82;;;4.32;;
47289;SDS011;33197;52.524;13.444;2023-07-09T11:41:57;6.38;;;3.67;;
47289;SDS011;33197;52.524;13.444;2023-07-09T11:44:26;5.75;;;4.22;;
47289;SDS011;33197;52.524;13.444;2023-07-09T11:49:57;6.60;;;3.80;;
47289;SDS011;33197;52.524;13.444;2023-07-09T11:55:16;7.20;;;4.57;;
47289;SDS011;33197;52.524;13.444;2023-07-09T11:57:47;5.43;;;3.90;;
47289;SDS011;33197;52.524;13.444;2023-07-09T12:00:16;5.72;;;4.18;;
47289;SDS011;33197;52.524;13.444;2023-07-09T12:02:44;4.15;;;3.63;;
47289;SDS011;33197;52.524;13.444;2023-07-09T12:05:15;4.97;;;3.92;;
47289;SDS011;33197;52.524;13.444;2023-07-09T12:07:46;14.85;;;4.03;;
47289;SDS011;33197;52.524;13.444;2023-07-09T12:10:17;6.78;;;4.28;;
47289;SDS011;33197;52.524;13.444;2023-07-09T12:12:48;5.72;;;4.32;;
47289;SDS011;33197;52.524;13.444;2023-07-09T12:15:16;4.97;;;3.65;;
47289;SDS011;33197;52.524;13.444;2023-07-09T12:17:57;8.10;;;4.25;;
47289;SDS011;33197;52.524;13.444;2023-07-09T12:20:29;5.45;;;3.63;;
47289;SDS011;33197;52.524;13.444;2023-07-09T12:22:57;5.28;;;4.20;;
47289;SDS011;33197;52.524;13.444;2023-07-09T12:25:25;4.57;;;4.18;;
47289;SDS011;33197;52.524;13.444;2023-07-09T12:27:57;5.85;;;4.47;;
47289;SDS011;33197;52.524;13.444;2023-07-09T12:30:24;3.97;;;3.67;;
47289;SDS011;33197;52.524;13.444;2023-07-09T12:32:52;5.30;;;3.97;;
47289;SDS011;33197;52.524;13.444;2023-07-09T12:35:19;4.75;;;3.60;;
47289;SDS011;33197;52.524;13.444;2023-07-09T12:37:47;4.68;;;3.50;;
47289;SDS011;33197;52.524;13.444;2023-07-09T12:40:19;6.90;;;3.80;;
47289;SDS011;33197;52.524;13.444;2023-07-09T12:42:48;4.68;;;3.55;;
47289;SDS011;33197;52.524;13.444;2023-07-09T12:45:17;4.60;;;4.20;;
47289;SDS011;33197;52.524;13.444;2023-07-09T12:47:46;4.30;;;3.95;;
47289;SDS011;33197;52.524;13.444;2023-07-09T12:50:19;7.53;;;4.45;;
47289;SDS011;33197;52.524;13.444;2023-07-09T12:53:03;9.88;;;4.28;;
47289;SDS011;33197;52.524;13.444;2023-07-09T12:55:42;4.70;;;4.20;;
47289;SDS011;33197;52.524;13.444;2023-07-09T12:58:16;6.65;;;4.30;;
47289;SDS011;33197;52.524;13.444;2023-07-09T13:00:50;7.78;;;5.00;;
47289;SDS011;33197;52.524;13.444;2023-07-09T13:03:40;4.50;;;4.05;;
47289;SDS011;33197;52.524;13.444;2023-07-09T13:06:20;6.95;;;4.70;;
47289;SDS011;33197;52.524;13.444;2023-07-09T13:08:55;10.15;;;4.10;;
47289;SDS011;33197;52.524;13.444;2023-07-09T13:11:24;6.07;;;4.35;;
47289;SDS011;33197;52.524;13.444;2023-07-09T13:13:56;4.38;;;3.80;;
47289;SDS011;33197;52.524;13.444;2023-07-09T13:16:27;4.35;;;3.90;;
47289;SDS011;33197;52.524;13.444;2023-07-09T13:18:54;4.80;;;3.80;;
47289;SDS011;33197;52.524;13.444;2023-07-09T13:21:22;9.85;;;4.47;;
47289;SDS011;33197;52.524;13.444;2023-07-09T13:23:49;6.47;;;4.55;;
47289;SDS011;33197;52.524;13.444;2023-07-09T13:26:19;4.50;;;3.92;;
47289;SDS011;33197;52.524;13.444;2023-07-09T13:28:46;8.13;;;4.20;;
47289;SDS011;33197;52.524;13.444;2023-07-09T13:31:17;5.60;;;4.35;;
47289;SDS011;33197;52.524;13.444;2023-07-09T13:33:50;5.18;;;3.90;;
47289;SDS011;33197;52.524;13.444;2023-07-09T13:36:20;6.47;;;4.50;;
47289;SDS011;33197;52.524;13.444;2023-07-09T13:38:47;8.57;;;4.40;;
47289;SDS011;33197;52.524;13.444;2023-07-09T13:41:17;10.38;;;4.03;;
47289;SDS011;33197;52.524;13.444;2023-07-09T13:43:49;5.22;;;4.38;;
47289;SDS011;33197;52.524;13.444;2023-07-09T13:46:18;6.63;;;4.47;;
47289;SDS011;33197;52.524;13.444;2023-07-09T13:48:45;13.13;;;4.45;;
47289;SDS011;33197;52.524;13.444;2023-07-09T13:51:14;10.30;;;3.80;;
47289;SDS011;33197;52.524;13.444;2023-07-09T13:53:46;8.23;;;5.27;;
47289;SDS011;33197;52.524;13.444;2023-07-09T13:56:15;16.02;;;5.50;;
47289;SDS011;33197;52.524;13.444;2023-07-09T13:58:42;8.68;;;4.30;;
47289;SDS011;33197;52.524;13.444;2023-07-09T14:01:11;9.25;;;4.13;;
47289;SDS011;33197;52.524;13.444;2023-07-09T14:03:40;5.20;;;4.13;;
47289;SDS011;33197;52.524;13.444;2023-07-09T14:06:12;10.85;;;5.00;;
47289;SDS011;33197;52.524;13.444;2023-07-09T14:08:41;7.28;;;4.10;;
47289;SDS011;33197;52.524;13.444;2023-07-09T14:11:11;8.95;;;4.55;;
47289;SDS011;33197;52.524;13.444;2023-07-09T14:13:40;12.95;;;5.18;;
47289;SDS011;33197;52.524;13.444;2023-07-09T14:16:09;13.38;;;5.30;;
47289;SDS011;33197;52.524;13.444;2023-07-09T14:18:38;5.93;;;4.38;;
47289;SDS011;33197;52.524;13.444;2023-07-09T14:21:10;5.47;;;4.82;;
47289;SDS011;33197;52.524;13.444;2023-07-09T14:23:40;5.78;;;4.45;;
47289;SDS011;33197;52.524;13.444;2023-07-09T14:26:08;4.85;;;4.07;;
47289;SDS011;33197;52.524;13.444;2023-07-09T14:28:36;5.35;;;4.30;;
47289;SDS011;33197;52.524;13.444;2023-07-09T14:34:15;9.50;;;4.70;;
47289;SDS011;33197;52.524;13.444;2023-07-09T14:36:44;4.82;;;4.38;;
47289;SDS011;33197;52.524;13.444;2023-07-09T14:39:12;5.93;;;4.60;;
47289;SDS011;33197;52.524;13.444;2023-07-09T14:41:39;7.45;;;4.15;;
47289;SDS011;33197;52.524;13.444;2023-07-09T14:44:15;4.78;;;4.30;;
47289;SDS011;33197;52.524;13.444;2023-07-09T14:46:53;4.60;;;4.20;;
47289;SDS011;33197;52.524;13.444;2023-07-09T14:49:22;7.60;;;4.50;;
47289;SDS011;33197;52.524;13.444;2023-07-09T14:51:49;8.43;;;4.60;;
47289;SDS011;33197;52.524;13.444;2023-07-09T14:54:21;7.68;;;4.07;;
47289;SDS011;33197;52.524;13.444;2023-07-09T14:56:51;5.53;;;4.18;;
47289;SDS011;33197;52.524;13.444;2023-07-09T14:59:19;5.30;;;4.22;;
47289;SDS011;33197;52.524;13.444;2023-07-09T15:01:46;5.32;;;4.30;;
47289;SDS011;33197;52.524;13.444;2023-07-09T15:06:58;7.80;;;4.55;;
47289;SDS011;33197;52.524;13.444;2023-07-09T15:09:26;5.65;;;4.90;;
47289;SDS011;33197;52.524;13.444;2023-07-09T15:11:55;8.32;;;4.72;;
47289;SDS011;33197;52.524;13.444;2023-07-09T15:14:25;6.50;;;3.83;;
47289;SDS011;33197;52.524;13.444;2023-07-09T15:16:53;4.78;;;4.05;;
47289;SDS011;33197;52.524;13.444;2023-07-09T15:19:25;6.75;;;4.55;;
47289;SDS011;33197;52.524;13.444;2023-07-09T15:21:52;6.13;;;4.07;;
47289;SDS011;33197;52.524;13.444;2023-07-09T15:24:20;4.82;;;4.35;;
47289;SDS011;33197;52.524;13.444;2023-07-09T15:26:53;5.50;;;3.90;;
47289;SDS011;33197;52.524;13.444;2023-07-09T15:29:21;7.63;;;4.13;;
47289;SDS011;33197;52.524;13.444;2023-07-09T15:31:49;7.50;;;3.95;;
47289;SDS011;33197;52.524;13.444;2023-07-09T15:34:17;6.40;;;4.45;;
47289;SDS011;33197;52.524;13.444;2023-07-09T15:36:46;5.50;;;4.53;;
47289;SDS011;33197;52.524;13.444;2023-07-09T15:39:16;6.15;;;4.75;;
47289;SDS011;33197;52.524;13.444;2023-07-09T15:41:47;5.88;;;3.60;;
47289;SDS011;33197;52.524;13.444;2023-07-09T15:44:15;5.05;;;4.65;;